Time,TemperatureF,DewpointF,PressureIn,WindDirection,WindDirectionDegrees,WindSpeedMPH,WindSpeedGustMPH,Humidity,HourlyPrecipIn,Conditions,Clouds,dailyrainin,SolarRadiationWatts/m^2,SoftwareType,DateUTC
2013-06-28 00:00:00,69.6,60.6,29.75,NW,316,2.0,2.0,73,0.00,,---,0.01,0.00,VWS V14.00,2013-06-28 05:00:00,
2013-06-28 00:01:00,71.1,59.2,29.76,North,355,0.0,1.0,66,0.00,,---,0.00,0.00,VWS V14.00,2013-06-28 05:01:00,
2013-06-28 00:06:00,71.0,59.1,29.76,North,355,0.0,2.0,66,0.00,,---,0.00,0.00,VWS V14.00,2013-06-28 05:06:00,
2013-06-28 00:12:00,70.9,59.4,29.76,North,355,0.0,2.0,67,0.00,,---,0.00,0.00,VWS V14.00,2013-06-28 05:12:00,
2013-06-28 00:17:00,70.7,59.2,29.76,North,355,0.0,2.0,67,0.00,,---,0.00,0.00,VWS V14.00,2013-06-28 05:17:00,
2013-06-28 00:22:00,70.4,58.9,29.76,North,355,0.0,2.0,67,0.00,,---,0.00,0.00,VWS V14.00,2013-06-28 05:22:00,
2013-06-28 00:27:00,70.3,59.2,29.76,NW,312,0.0,2.0,68,0.00,,---,0.00,0.00,VWS V14.00,2013-06-28 05:27:00,
2013-06-28 00:30:00,70.9,59.8,29.75,NNW,340,1.0,5.0,68,0.00,,---,0.01,0.00,VWS V14.00,2013-06-28 05:30:00,
2013-06-28 00:32:00,70.3,59.7,29.76,NNW,327,0.0,3.0,69,0.00,,---,0.00,0.00,VWS V14.00,2013-06-28 05:32:00,
2013-06-28 00:37:00,70.3,59.7,29.76,NW,325,0.0,3.0,69,0.00,,---,0.00,0.00,VWS V14.00,2013-06-28 05:37:00,
2013-06-28 00:42:00,70.4,58.9,29.76,NNE,15,0.0,3.0,67,0.00,,---,0.00,0.00,VWS V14.00,2013-06-28 05:42:00,
2013-06-28 00:47:00,70.5,59.4,29.76,NW,323,2.0,5.0,68,0.00,,---,0.00,0.00,VWS V14.00,2013-06-28 05:47:00,
2013-06-28 00:52:00,70.7,58.8,29.76,NW,323,2.0,6.0,66,0.00,,---,0.00,0.00,VWS V14.00,2013-06-28 05:52:00,
2013-06-28 00:57:00,70.8,58.9,29.76,NW,312,4.0,6.0,66,0.00,,---,0.00,0.00,VWS V14.00,2013-06-28 05:57:00,
2013-06-28 01:00:00,71.3,59.4,29.75,North,355,0.0,3.0,66,0.00,,---,0.00,0.00,VWS V14.00,2013-06-28 06:00:00,
2013-06-28 01:02:00,71.1,58.3,29.76,NW,326,1.0,7.0,64,0.00,,---,0.00,0.00,VWS V14.00,2013-06-28 06:02:00,
2013-06-28 01:08:00,71.3,58.5,29.76,NNW,327,3.0,7.0,64,0.00,,---,0.00,0.00,VWS V14.00,2013-06-28 06:08:00,
2013-06-28 01:13:00,71.3,58.5,29.77,NW,324,1.0,7.0,64,0.00,,---,0.00,0.00,VWS V14.00,2013-06-28 06:13:00,
2013-06-28 01:18:00,71.3,58.5,29.77,NW,322,0.0,7.0,64,0.00,,---,0.00,0.00,VWS V14.00,2013-06-28 06:18:00,
2013-06-28 01:23:00,71.0,58.7,29.77,NNW,341,2.0,7.0,65,0.00,,---,0.00,0.00,VWS V14.00,2013-06-28 06:23:00,
2013-06-28 01:28:00,70.9,58.1,29.77,North,355,2.0,3.0,64,0.00,,---,0.00,0.00,VWS V14.00,2013-06-28 06:28:00,
2013-06-28 01:30:00,70.3,59.2,29.76,NW,312,0.0,2.0,68,0.00,,---,0.00,0.00,VWS V14.00,2013-06-28 06:30:00,
2013-06-28 01:33:00,70.9,58.6,29.77,NNW,338,2.0,4.0,65,0.00,,---,0.00,0.00,VWS V14.00,2013-06-28 06:33:00,
2013-06-28 01:38:00,70.7,58.8,29.77,NW,314,0.0,4.0,66,0.00,,---,0.00,0.00,VWS V14.00,2013-06-28 06:38:00,
2013-06-28 01:43:00,70.5,58.6,29.77,NW,315,0.0,4.0,66,0.00,,---,0.00,0.00,VWS V14.00,2013-06-28 06:43:00,
2013-06-28 01:48:00,70.2,58.3,29.77,NW,315,0.0,4.0,66,0.00,,---,0.00,0.00,VWS V14.00,2013-06-28 06:48:00,
2013-06-28 01:53:00,70.0,58.1,29.77,NW,315,0.0,4.0,66,0.00,,---,0.00,0.00,VWS V14.00,2013-06-28 06:53:00,
2013-06-28 01:59:00,69.8,58.8,29.77,NW,315,0.0,3.0,68,0.00,,---,0.00,0.00,VWS V14.00,2013-06-28 06:59:00,
2013-06-28 02:00:00,70.8,58.9,29.76,NNW,330,6.0,6.0,66,0.00,,---,0.00,0.00,VWS V14.00,2013-06-28 07:00:00,
2013-06-28 02:04:00,69.5,58.5,29.77,NW,315,0.0,3.0,68,0.00,,---,0.00,0.00,VWS V14.00,2013-06-28 07:04:00,
2013-06-28 02:09:00,69.3,58.3,29.78,NNW,328,0.0,3.0,68,0.00,,---,0.00,0.00,VWS V14.00,2013-06-28 07:09:00,
2013-06-28 02:14:00,69.2,58.6,29.77,NNW,345,0.0,4.0,69,0.00,,---,0.00,0.00,VWS V14.00,2013-06-28 07:14:00,
2013-06-28 02:19:00,69.1,58.5,29.77,NNW,344,0.0,4.0,69,0.00,,---,0.00,0.00,VWS V14.00,2013-06-28 07:19:00,
2013-06-28 02:24:00,68.9,58.7,29.77,NNW,344,0.0,4.0,70,0.00,,---,0.00,0.00,VWS V14.00,2013-06-28 07:24:00,
2013-06-28 02:29:00,68.6,58.8,29.77,NNW,345,0.0,1.0,71,0.00,,---,0.01,0.00,VWS V14.00,2013-06-28 07:29:00,
2013-06-28 02:30:00,70.9,58.6,29.77,NW,320,2.0,7.0,65,0.00,,---,0.00,0.00,VWS V14.00,2013-06-28 07:30:00,
2013-06-28 02:34:00,68.5,58.7,29.78,NNW,344,1.0,3.0,71,0.00,,---,0.01,0.00,VWS V14.00,2013-06-28 07:34:00,
2013-06-28 02:39:00,68.5,58.7,29.78,NNW,344,0.0,3.0,71,0.00,,---,0.01,0.00,VWS V14.00,2013-06-28 07:39:00,
2013-06-28 02:44:00,68.4,58.6,29.77,NNW,344,0.0,3.0,71,0.00,,---,0.01,0.00,VWS V14.00,2013-06-28 07:44:00,
2013-06-28 02:50:00,68.4,59.0,29.77,NNW,327,1.0,4.0,72,0.00,,---,0.01,0.00,VWS V14.00,2013-06-28 07:50:00,
2013-06-28 02:55:00,68.3,58.5,29.77,NW,320,1.0,4.0,71,0.00,,---,0.01,0.00,VWS V14.00,2013-06-28 07:55:00,
2013-06-28 03:00:00,68.2,58.8,29.77,NW,321,1.0,4.0,72,0.00,,---,0.01,0.00,VWS V14.00,2013-06-28 08:00:00,
2013-06-28 03:05:00,68.2,58.8,29.77,NW,321,0.0,4.0,72,0.00,,---,0.01,0.00,VWS V14.00,2013-06-28 08:05:00,
2013-06-28 03:10:00,68.1,58.7,29.77,NW,322,0.0,4.0,72,0.00,,---,0.01,0.00,VWS V14.00,2013-06-28 08:10:00,
2013-06-28 03:15:00,68.0,59.0,29.77,NW,322,0.0,4.0,73,0.00,,---,0.01,0.00,VWS V14.00,2013-06-28 08:15:00,
2013-06-28 03:20:00,67.9,58.9,29.77,NW,312,1.0,4.0,73,0.00,,---,0.01,0.00,VWS V14.00,2013-06-28 08:20:00,
2013-06-28 03:25:00,67.8,58.8,29.77,NW,312,0.0,4.0,73,0.00,,---,0.01,0.00,VWS V14.00,2013-06-28 08:25:00,
2013-06-28 03:30:00,67.7,58.7,29.76,NW,312,0.0,0.0,73,0.00,,---,0.01,0.00,VWS V14.00,2013-06-28 08:30:00,
2013-06-28 03:36:00,67.6,58.7,29.77,NNW,340,0.0,3.0,73,0.00,,---,0.01,0.00,VWS V14.00,2013-06-28 08:36:00,
2013-06-28 03:41:00,67.5,58.5,29.76,NNW,340,0.0,3.0,73,0.00,,---,0.01,0.00,VWS V14.00,2013-06-28 08:41:00,
2013-06-28 03:46:00,67.3,58.7,29.76,NNW,340,0.0,3.0,74,0.00,,---,0.01,0.00,VWS V14.00,2013-06-28 08:46:00,
2013-06-28 03:51:00,67.2,58.6,29.76,NNW,341,0.0,3.0,74,0.00,,---,0.01,0.00,VWS V14.00,2013-06-28 08:51:00,
2013-06-28 03:56:00,67.1,58.9,29.76,NNW,341,0.0,3.0,75,0.00,,---,0.01,0.00,VWS V14.00,2013-06-28 08:56:00,
2013-06-28 04:00:00,68.3,58.5,29.77,NW,320,2.0,4.0,71,0.00,,---,0.01,0.00,VWS V14.00,2013-06-28 09:00:00,
2013-06-28 04:01:00,67.1,58.9,29.76,NNW,341,0.0,0.0,75,0.00,,---,0.01,0.00,VWS V14.00,2013-06-28 09:01:00,
2013-06-28 04:06:00,67.0,58.8,29.76,NNW,341,0.0,1.0,75,0.00,,---,0.01,0.00,VWS V14.00,2013-06-28 09:06:00,
2013-06-28 04:11:00,66.8,58.6,29.76,NNW,341,0.0,1.0,75,0.00,,---,0.01,0.00,VWS V14.00,2013-06-28 09:11:00,
2013-06-28 04:16:00,66.7,58.5,29.76,NNW,341,0.0,2.0,75,0.00,,---,0.01,0.00,VWS V14.00,2013-06-28 09:16:00,
2013-06-28 04:22:00,66.6,58.8,29.76,NNW,341,0.0,2.0,76,0.00,,---,0.01,0.00,VWS V14.00,2013-06-28 09:22:00,
2013-06-28 04:27:00,66.5,59.1,29.76,NNW,341,0.0,2.0,77,0.00,,---,0.01,0.00,VWS V14.00,2013-06-28 09:27:00,
2013-06-28 04:30:00,67.8,58.8,29.76,NW,312,0.0,4.0,73,0.00,,---,0.01,0.00,VWS V14.00,2013-06-28 09:30:00,
2013-06-28 04:32:00,66.3,58.9,29.76,NNW,336,0.0,1.0,77,0.00,,---,0.01,0.00,VWS V14.00,2013-06-28 09:32:00,
2013-06-28 04:37:00,66.2,58.4,29.76,NNW,336,0.0,1.0,76,0.00,,---,0.01,0.00,VWS V14.00,2013-06-28 09:37:00,
2013-06-28 04:42:00,66.1,58.3,29.76,NNW,336,0.0,1.0,76,0.00,,---,0.01,0.00,VWS V14.00,2013-06-28 09:42:00,
2013-06-28 04:47:00,66.0,58.6,29.76,North,355,0.0,4.0,77,0.00,,---,0.01,0.00,VWS V14.00,2013-06-28 09:47:00,
2013-06-28 04:52:00,65.9,58.5,29.76,NNW,337,0.0,4.0,77,0.00,,---,0.01,0.00,VWS V14.00,2013-06-28 09:52:00,
2013-06-28 04:57:00,65.8,58.4,29.76,NNW,337,2.0,2.0,77,0.00,,---,0.01,0.00,VWS V14.00,2013-06-28 09:57:00,
2013-06-28 05:00:00,67.2,59.0,29.76,NNW,341,0.0,3.0,75,0.00,,---,0.01,0.00,VWS V14.00,2013-06-28 10:00:00,
2013-06-28 05:02:00,65.8,58.4,29.76,NNW,344,0.0,3.0,77,0.00,,---,0.01,0.00,VWS V14.00,2013-06-28 10:02:00,
2013-06-28 05:07:00,65.9,58.5,29.76,North,355,0.0,3.0,77,0.00,,---,0.01,0.00,VWS V14.00,2013-06-28 10:07:00,
2013-06-28 05:12:00,65.9,58.5,29.76,North,355,0.0,3.0,77,0.00,,---,0.01,0.00,VWS V14.00,2013-06-28 10:12:00,
2013-06-28 05:17:00,65.8,58.8,29.76,North,355,0.0,3.0,78,0.00,,---,0.01,0.00,VWS V14.00,2013-06-28 10:17:00,
2013-06-28 05:23:00,65.7,58.7,29.76,North,355,0.0,3.0,78,0.00,,---,0.01,0.00,VWS V14.00,2013-06-28 10:23:00,
2013-06-28 05:28:00,65.5,58.5,29.76,ENE,69,0.0,2.0,78,0.00,,---,0.01,0.00,VWS V14.00,2013-06-28 10:28:00,
2013-06-28 05:30:00,66.5,59.1,29.76,NNW,341,0.0,2.0,77,0.00,,---,0.01,0.00,VWS V14.00,2013-06-28 10:30:00,
2013-06-28 05:33:00,65.5,58.8,29.76,NNW,347,0.0,2.0,79,0.00,,---,0.01,5.00,VWS V14.00,2013-06-28 10:33:00,
2013-06-28 05:38:00,65.4,58.7,29.75,NW,324,0.0,2.0,79,0.00,,---,0.01,7.00,VWS V14.00,2013-06-28 10:38:00,
2013-06-28 05:43:00,65.2,58.5,29.75,NW,324,0.0,2.0,79,0.00,,---,0.01,7.00,VWS V14.00,2013-06-28 10:43:00,
2013-06-28 05:48:00,65.2,58.5,29.75,NNW,340,0.0,2.0,79,0.00,,---,0.01,9.00,VWS V14.00,2013-06-28 10:48:00,
2013-06-28 05:53:00,65.3,58.6,29.75,NNW,340,0.0,2.0,79,0.00,,---,0.01,11.00,VWS V14.00,2013-06-28 10:53:00,
2013-06-28 05:58:00,65.4,59.1,29.75,NNW,348,0.0,1.0,80,0.00,,---,0.01,12.00,VWS V14.00,2013-06-28 10:58:00,
2013-06-28 06:00:00,65.8,58.4,29.76,NNW,337,1.0,4.0,77,0.00,,---,0.01,0.00,VWS V14.00,2013-06-28 11:00:00,
2013-06-28 06:03:00,65.5,59.2,29.75,North,350,0.0,3.0,80,0.00,,---,0.01,14.00,VWS V14.00,2013-06-28 11:03:00,
2013-06-28 06:08:00,65.8,59.5,29.75,NNW,329,0.0,5.0,80,0.00,,---,0.01,18.00,VWS V14.00,2013-06-28 11:08:00,
2013-06-28 06:14:00,65.9,59.6,29.75,NNE,14,4.0,5.0,80,0.00,,---,0.01,19.00,VWS V14.00,2013-06-28 11:14:00,
2013-06-28 06:19:00,66.3,60.0,29.75,West,280,0.0,5.0,80,0.00,,---,0.01,21.00,VWS V14.00,2013-06-28 11:19:00,
2013-06-28 06:24:00,66.6,59.9,29.75,NNW,340,0.0,5.0,79,0.00,,---,0.01,25.00,VWS V14.00,2013-06-28 11:24:00,
2013-06-28 06:29:00,66.8,60.1,29.75,NE,51,4.0,4.0,79,0.00,,---,0.01,26.00,VWS V14.00,2013-06-28 11:29:00,
2013-06-28 06:30:00,65.5,58.5,29.76,North,355,0.0,3.0,78,0.00,,---,0.01,0.00,VWS V14.00,2013-06-28 11:30:00,
2013-06-28 06:34:00,67.0,59.9,29.75,NNW,329,1.0,10.0,78,0.00,,---,0.01,28.00,VWS V14.00,2013-06-28 11:34:00,
2013-06-28 06:39:00,67.2,60.1,29.75,NNE,12,2.0,10.0,78,0.00,,---,0.01,32.00,VWS V14.00,2013-06-28 11:39:00,
2013-06-28 06:44:00,67.4,60.7,29.74,East,98,0.0,10.0,79,0.00,,---,0.01,35.00,VWS V14.00,2013-06-28 11:44:00,
2013-06-28 06:49:00,67.5,60.4,29.74,NNW,329,1.0,10.0,78,0.00,,---,0.01,37.00,VWS V14.00,2013-06-28 11:49:00,
2013-06-28 06:54:00,67.6,60.1,29.75,North,10,0.0,10.0,77,0.00,,---,0.01,40.00,VWS V14.00,2013-06-28 11:54:00,
2013-06-28 06:59:00,67.8,60.3,29.74,NW,320,1.0,5.0,77,0.00,,---,0.01,42.00,VWS V14.00,2013-06-28 11:59:00,
2013-06-28 07:00:00,65.4,59.1,29.75,NNW,348,0.0,2.0,80,0.00,,---,0.01,12.00,VWS V14.00,2013-06-28 12:00:00,
2013-06-28 07:04:00,67.9,60.4,29.74,NNW,328,0.0,7.0,77,0.00,,---,0.01,44.00,VWS V14.00,2013-06-28 12:04:00,
2013-06-28 07:09:00,68.0,60.5,29.74,WNW,286,1.0,11.0,77,0.00,,---,0.01,46.00,VWS V14.00,2013-06-28 12:09:00,
2013-06-28 07:14:00,68.2,60.7,29.74,West,281,0.0,11.0,77,0.00,,---,0.01,47.00,VWS V14.00,2013-06-28 12:14:00,
2013-06-28 07:20:00,68.4,60.5,29.74,NW,320,7.0,11.0,76,0.00,,---,0.01,49.00,VWS V14.00,2013-06-28 12:20:00,
2013-06-28 07:25:00,68.5,60.6,29.74,North,9,1.0,11.0,76,0.00,,---,0.01,49.00,VWS V14.00,2013-06-28 12:25:00,
2013-06-28 07:30:00,68.7,60.8,29.74,North,355,5.0,9.0,76,0.00,,---,0.01,51.00,VWS V14.00,2013-06-28 12:30:00,
2013-06-28 07:35:00,68.9,60.7,29.74,NNW,338,10.0,11.0,75,0.00,,---,0.01,53.00,VWS V14.00,2013-06-28 12:35:00,
2013-06-28 07:40:00,69.1,60.8,29.74,NW,317,1.0,12.0,75,0.00,,---,0.01,54.00,VWS V14.00,2013-06-28 12:40:00,
2013-06-28 07:45:00,69.3,61.0,29.74,NNE,24,1.0,14.0,75,0.00,,---,0.01,62.00,VWS V14.00,2013-06-28 12:45:00,
2013-06-28 07:50:00,69.4,60.8,29.74,NNW,329,4.0,14.0,74,0.00,,---,0.01,95.00,VWS V14.00,2013-06-28 12:50:00,
2013-06-28 07:55:00,69.6,61.0,29.73,NW,309,6.0,14.0,74,0.00,,---,0.01,91.00,VWS V14.00,2013-06-28 12:55:00,
2013-06-28 08:00:00,69.8,61.2,29.73,WNW,301,1.0,9.0,74,0.00,,---,0.01,67.00,VWS V14.00,2013-06-28 13:00:00,
2013-06-28 08:05:00,70.0,61.3,29.73,NW,317,5.0,9.0,74,0.00,,---,0.01,121.00,VWS V14.00,2013-06-28 13:05:00,
2013-06-28 08:10:00,70.1,60.7,29.73,West,261,1.0,15.0,72,0.00,,---,0.01,100.00,VWS V14.00,2013-06-28 13:10:00,
2013-06-28 08:15:00,70.2,60.8,29.73,North,355,4.0,15.0,72,0.00,,---,0.01,113.00,VWS V14.00,2013-06-28 13:15:00,
2013-06-28 08:21:00,70.4,60.6,29.74,WNW,296,4.0,16.0,71,0.00,,---,0.01,70.00,VWS V14.00,2013-06-28 13:21:00,
2013-06-28 08:26:00,70.5,60.3,29.73,NW,315,7.0,16.0,70,0.00,,---,0.01,70.00,VWS V14.00,2013-06-28 13:26:00,
2013-06-28 08:30:00,68.6,60.7,29.74,North,355,2.0,11.0,76,0.00,,---,0.01,51.00,VWS V14.00,2013-06-28 13:30:00,
2013-06-28 08:31:00,70.7,60.0,29.74,North,5,3.0,12.0,69,0.00,,---,0.01,72.00,VWS V14.00,2013-06-28 13:31:00,
2013-06-28 08:36:00,70.9,60.6,29.74,SW,221,2.0,15.0,70,0.00,,---,0.01,70.00,VWS V14.00,2013-06-28 13:36:00,
2013-06-28 08:41:00,71.0,59.9,29.74,NNE,13,11.0,16.0,68,0.00,,---,0.01,76.00,VWS V14.00,2013-06-28 13:41:00,
2013-06-28 08:46:00,71.1,60.0,29.74,NNW,340,6.0,16.0,68,0.00,,---,0.01,81.00,VWS V14.00,2013-06-28 13:46:00,
2013-06-28 08:51:00,71.2,60.1,29.74,SW,225,4.0,16.0,68,0.00,,---,0.01,149.00,VWS V14.00,2013-06-28 13:51:00,
2013-06-28 08:56:00,71.3,60.6,29.74,NW,321,4.0,16.0,69,0.00,,---,0.01,441.00,VWS V14.00,2013-06-28 13:56:00,
2013-06-28 09:00:00,69.6,60.6,29.74,WNW,291,0.0,14.0,73,0.00,,---,0.01,91.00,VWS V14.00,2013-06-28 14:00:00,
2013-06-28 09:01:00,71.5,60.4,29.74,NE,40,6.0,14.0,68,0.00,,---,0.01,510.00,VWS V14.00,2013-06-28 14:01:00,
2013-06-28 09:06:00,71.6,60.9,29.74,NNW,331,4.0,16.0,69,0.00,,---,0.01,594.00,VWS V14.00,2013-06-28 14:06:00,
2013-06-28 09:11:00,71.6,60.1,29.74,NW,306,11.0,16.0,67,0.00,,---,0.01,599.00,VWS V14.00,2013-06-28 14:11:00,
2013-06-28 09:17:00,71.6,59.7,29.74,WNW,293,6.0,17.0,66,0.00,,---,0.01,635.00,VWS V14.00,2013-06-28 14:17:00,
2013-06-28 09:22:00,71.6,59.7,29.73,NNW,348,2.0,17.0,66,0.00,,---,0.01,664.00,VWS V14.00,2013-06-28 14:22:00,
2013-06-28 09:27:00,71.8,61.1,29.74,WNW,298,6.0,17.0,69,0.00,,---,0.01,689.00,VWS V14.00,2013-06-28 14:27:00,
2013-06-28 09:30:00,70.6,60.3,29.74,NNW,327,5.0,16.0,70,0.00,,---,0.01,74.00,VWS V14.00,2013-06-28 14:30:00,
2013-06-28 09:32:00,72.0,60.0,29.73,NW,304,7.0,15.0,66,0.00,,---,0.01,700.00,VWS V14.00,2013-06-28 14:32:00,
2013-06-28 09:37:00,72.3,60.3,29.74,West,278,9.0,15.0,66,0.00,,---,0.01,703.00,VWS V14.00,2013-06-28 14:37:00,
2013-06-28 09:42:00,72.5,60.5,29.73,WNW,294,10.0,15.0,66,0.00,,---,0.01,134.00,VWS V14.00,2013-06-28 14:42:00,
2013-06-28 09:47:00,72.6,60.6,29.73,NW,323,10.0,15.0,66,0.00,,---,0.01,884.00,VWS V14.00,2013-06-28 14:47:00,
2013-06-28 09:52:00,72.7,59.8,29.74,NW,306,15.0,18.0,64,0.00,,---,0.01,944.00,VWS V14.00,2013-06-28 14:52:00,
2013-06-28 09:57:00,72.5,59.2,29.74,NNW,335,6.0,19.0,63,0.00,,---,0.01,954.00,VWS V14.00,2013-06-28 14:57:00,
2013-06-28 10:00:00,71.3,60.2,29.74,NW,312,3.0,16.0,68,0.00,,---,0.01,408.00,VWS V14.00,2013-06-28 15:00:00,
2013-06-28 10:02:00,72.7,59.8,29.74,NW,312,4.0,18.0,64,0.00,,---,0.01,338.00,VWS V14.00,2013-06-28 15:02:00,
2013-06-28 10:07:00,73.0,60.5,29.74,NNW,342,12.0,18.0,65,0.00,,---,0.01,276.00,VWS V14.00,2013-06-28 15:07:00,
2013-06-28 10:12:00,72.7,59.8,29.74,NW,308,12.0,18.0,64,0.00,,---,0.01,255.00,VWS V14.00,2013-06-28 15:12:00,
2013-06-28 10:17:00,72.3,59.9,29.74,NNW,332,6.0,18.0,65,0.00,,---,0.01,531.00,VWS V14.00,2013-06-28 15:17:00,
2013-06-28 10:23:00,72.6,61.0,29.73,NNW,331,11.0,18.0,67,0.00,,---,0.01,468.00,VWS V14.00,2013-06-28 15:23:00,
2013-06-28 10:28:00,72.7,59.8,29.73,WNW,299,5.0,6.0,64,0.00,,---,0.01,315.00,VWS V14.00,2013-06-28 15:28:00,
2013-06-28 10:30:00,71.8,61.1,29.74,NW,311,10.0,17.0,69,0.00,,---,0.01,707.00,VWS V14.00,2013-06-28 15:30:00,
2013-06-28 10:33:00,72.1,60.1,29.73,NW,305,3.0,21.0,66,0.00,,---,0.01,255.00,VWS V14.00,2013-06-28 15:33:00,
2013-06-28 10:38:00,71.8,59.8,29.74,NNE,21,11.0,21.0,66,0.00,,---,0.01,345.00,VWS V14.00,2013-06-28 15:38:00,
2013-06-28 10:43:00,71.7,60.2,29.73,NW,319,11.0,21.0,67,0.00,,---,0.01,376.00,VWS V14.00,2013-06-28 15:43:00,
2013-06-28 10:48:00,71.8,59.8,29.73,WNW,302,5.0,21.0,66,0.00,,---,0.01,316.00,VWS V14.00,2013-06-28 15:48:00,
2013-06-28 10:53:00,71.7,59.8,29.73,NNW,334,9.0,21.0,66,0.00,,---,0.01,364.00,VWS V14.00,2013-06-28 15:53:00,
2013-06-28 10:58:00,71.8,60.7,29.73,NW,319,6.0,7.0,68,0.00,,---,0.01,341.00,VWS V14.00,2013-06-28 15:58:00,
2013-06-28 11:00:00,72.5,59.2,29.74,NNW,335,6.0,19.0,63,0.00,,---,0.01,954.00,VWS V14.00,2013-06-28 16:00:00,
2013-06-28 11:03:00,71.9,61.2,29.73,NW,309,4.0,11.0,69,0.00,,---,0.01,468.00,VWS V14.00,2013-06-28 16:03:00,
2013-06-28 11:09:00,72.5,61.3,29.73,NNE,16,2.0,11.0,68,0.00,,---,0.01,378.00,VWS V14.00,2013-06-28 16:09:00,
2013-06-28 11:14:00,72.6,61.0,29.73,WNW,293,5.0,12.0,67,0.00,,---,0.01,320.00,VWS V14.00,2013-06-28 16:14:00,
2013-06-28 11:19:00,72.4,61.2,29.73,NW,324,9.0,14.0,68,0.00,,---,0.01,343.00,VWS V14.00,2013-06-28 16:19:00,
2013-06-28 11:24:00,72.2,60.2,29.73,North,355,7.0,15.0,66,0.00,,---,0.01,364.00,VWS V14.00,2013-06-28 16:24:00,
2013-06-28 11:29:00,71.9,60.8,29.74,NW,306,8.0,12.0,68,0.00,,---,0.01,237.00,VWS V14.00,2013-06-28 16:29:00,
2013-06-28 11:30:00,72.8,59.9,29.73,NW,316,6.0,18.0,64,0.00,,---,0.01,320.00,VWS V14.00,2013-06-28 16:30:00,
2013-06-28 11:34:00,71.7,60.6,29.74,NNW,329,3.0,13.0,68,0.00,,---,0.01,327.00,VWS V14.00,2013-06-28 16:34:00,
2013-06-28 11:39:00,71.8,60.7,29.74,ENE,61,5.0,13.0,68,0.00,,---,0.01,434.00,VWS V14.00,2013-06-28 16:39:00,
2013-06-28 11:44:00,71.8,60.7,29.74,NW,321,3.0,13.0,68,0.00,,---,0.01,318.00,VWS V14.00,2013-06-28 16:44:00,
2013-06-28 11:49:00,72.0,62.1,29.74,NNW,337,4.0,13.0,71,0.00,,---,0.01,318.00,VWS V14.00,2013-06-28 16:49:00,
2013-06-28 11:54:00,72.5,61.3,29.74,NW,323,5.0,15.0,68,0.00,,---,0.01,988.00,VWS V14.00,2013-06-28 16:54:00,
2013-06-28 11:59:00,72.9,62.1,29.75,North,350,6.0,10.0,69,0.00,,---,0.01,429.00,VWS V14.00,2013-06-28 16:59:00,
2013-06-28 12:00:00,71.8,60.3,29.73,West,277,2.0,21.0,67,0.00,,---,0.01,457.00,VWS V14.00,2013-06-28 17:00:00,
2013-06-28 12:05:00,72.7,61.5,29.75,NW,316,7.0,13.0,68,0.00,,---,0.01,362.00,VWS V14.00,2013-06-28 17:05:00,
2013-06-28 12:10:00,72.4,61.7,29.75,WNW,285,3.0,13.0,69,0.00,,---,0.01,290.00,VWS V14.00,2013-06-28 17:10:00,
2013-06-28 12:15:00,72.2,61.9,29.75,NNW,335,5.0,13.0,70,0.00,,---,0.01,325.00,VWS V14.00,2013-06-28 17:15:00,
2013-06-28 12:20:00,71.9,61.6,29.75,NNE,19,8.0,15.0,70,0.00,,---,0.01,227.00,VWS V14.00,2013-06-28 17:20:00,
2013-06-28 12:25:00,71.7,61.8,29.75,NW,304,7.0,15.0,71,0.00,,---,0.01,244.00,VWS V14.00,2013-06-28 17:25:00,
2013-06-28 12:30:00,71.5,62.0,29.75,WNW,298,4.0,10.0,72,0.00,,---,0.01,248.00,VWS V14.00,2013-06-28 17:30:00,
2013-06-28 12:35:00,71.6,62.1,29.75,NNW,348,6.0,12.0,72,0.00,,---,0.01,413.00,VWS V14.00,2013-06-28 17:35:00,
2013-06-28 12:40:00,71.7,62.2,29.75,NW,322,1.0,12.0,72,0.00,,---,0.01,397.00,VWS V14.00,2013-06-28 17:40:00,
2013-06-28 12:45:00,71.9,62.0,29.75,NNW,330,4.0,12.0,71,0.00,,---,0.01,267.00,VWS V14.00,2013-06-28 17:45:00,
2013-06-28 12:50:00,71.7,61.8,29.75,NW,315,7.0,14.0,71,0.00,,---,0.01,272.00,VWS V14.00,2013-06-28 17:50:00,
2013-06-28 12:55:00,71.6,62.5,29.75,WNW,294,6.0,14.0,73,0.00,,---,0.01,132.00,VWS V14.00,2013-06-28 17:55:00,
2013-06-28 13:00:00,71.2,61.7,29.75,NW,309,5.0,18.0,72,0.00,,---,0.01,167.00,VWS V14.00,2013-06-28 18:00:00,
2013-06-28 13:06:00,71.0,61.5,29.75,North,349,4.0,18.0,72,0.00,,---,0.01,262.00,VWS V14.00,2013-06-28 18:06:00,
2013-06-28 13:11:00,71.2,62.1,29.75,North,11,5.0,18.0,73,0.00,,---,0.01,397.00,VWS V14.00,2013-06-28 18:11:00,
2013-06-28 13:16:00,71.5,62.0,29.75,North,11,10.0,18.0,72,0.00,,---,0.01,253.00,VWS V14.00,2013-06-28 18:16:00,
2013-06-28 13:21:00,71.4,62.3,29.75,North,355,6.0,18.0,73,0.00,,---,0.01,258.00,VWS V14.00,2013-06-28 18:21:00,
2013-06-28 13:26:00,71.3,62.6,29.75,NW,309,2.0,18.0,74,0.00,,---,0.01,306.00,VWS V14.00,2013-06-28 18:26:00,
2013-06-28 13:30:00,71.6,61.3,29.75,North,355,4.0,15.0,70,0.00,,---,0.01,264.00,VWS V14.00,2013-06-28 18:30:00,
2013-06-28 13:31:00,71.5,62.8,29.75,NNE,22,5.0,10.0,74,0.00,,---,0.01,427.00,VWS V14.00,2013-06-28 18:31:00,
2013-06-28 13:36:00,72.4,63.3,29.75,WNW,287,3.0,11.0,73,0.00,,---,0.01,754.00,VWS V14.00,2013-06-28 18:36:00,
2013-06-28 13:41:00,72.8,62.5,29.74,WNW,302,3.0,14.0,70,0.00,,---,0.01,424.00,VWS V14.00,2013-06-28 18:41:00,
2013-06-28 13:46:00,72.5,62.6,29.75,NW,325,3.0,15.0,71,0.00,,---,0.01,404.00,VWS V14.00,2013-06-28 18:46:00,
2013-06-28 13:51:00,72.5,62.6,29.74,WNW,290,4.0,15.0,71,0.00,,---,0.01,548.00,VWS V14.00,2013-06-28 18:51:00,
2013-06-28 13:56:00,72.6,63.1,29.74,North,5,4.0,15.0,72,0.00,,---,0.01,441.00,VWS V14.00,2013-06-28 18:56:00,
2013-06-28 14:00:00,71.4,61.5,29.75,WNW,284,1.0,14.0,71,0.00,,---,0.01,137.00,VWS V14.00,2013-06-28 19:00:00,
2013-06-28 14:01:00,72.6,62.7,29.75,NNW,338,4.0,10.0,71,0.00,,---,0.01,283.00,VWS V14.00,2013-06-28 19:01:00,
2013-06-28 14:06:00,72.4,62.1,29.75,WNW,294,5.0,11.0,70,0.00,,---,0.01,65.00,VWS V14.00,2013-06-28 19:06:00,
2013-06-28 14:11:00,71.7,63.0,29.75,NNW,339,3.0,13.0,74,0.00,,---,0.01,134.00,VWS V14.00,2013-06-28 19:11:00,
2013-06-28 14:17:00,71.2,63.6,29.75,WNW,284,2.0,13.0,77,0.00,,---,0.01,381.00,VWS V14.00,2013-06-28 19:17:00,
2013-06-28 14:22:00,71.4,63.1,29.75,NNW,335,5.0,13.0,75,0.00,,---,0.01,575.00,VWS V14.00,2013-06-28 19:22:00,
2013-06-28 14:27:00,72.3,63.9,29.75,NW,326,5.0,13.0,75,0.00,,---,0.01,575.00,VWS V14.00,2013-06-28 19:27:00,
2013-06-28 14:30:00,71.4,62.7,29.75,NW,308,2.0,18.0,74,0.00,,---,0.01,392.00,VWS V14.00,2013-06-28 19:30:00,
2013-06-28 14:32:00,73.0,63.8,29.75,NW,321,4.0,12.0,73,0.00,,---,0.01,227.00,VWS V14.00,2013-06-28 19:32:00,
2013-06-28 14:37:00,72.8,62.5,29.74,NNW,337,6.0,12.0,70,0.00,,---,0.01,114.00,VWS V14.00,2013-06-28 19:37:00,
2013-06-28 14:42:00,72.5,62.2,29.74,West,262,9.0,15.0,70,0.00,,---,0.01,304.00,VWS V14.00,2013-06-28 19:42:00,
2013-06-28 14:47:00,72.7,62.8,29.74,WNW,303,3.0,15.0,71,0.00,,---,0.01,332.00,VWS V14.00,2013-06-28 19:47:00,
2013-06-28 14:52:00,73.6,62.8,29.74,NW,321,9.0,15.0,69,0.00,,---,0.01,956.00,VWS V14.00,2013-06-28 19:52:00,
2013-06-28 14:57:00,74.2,63.0,29.74,North,355,4.0,4.0,68,0.00,,---,0.01,986.00,VWS V14.00,2013-06-28 19:57:00,
2013-06-28 15:00:00,72.7,63.2,29.74,NW,318,2.0,15.0,72,0.00,,---,0.01,438.00,VWS V14.00,2013-06-28 20:00:00,
2013-06-28 15:02:00,74.6,63.8,29.74,NW,323,4.0,9.0,69,0.00,,---,0.01,986.00,VWS V14.00,2013-06-28 20:02:00,
2013-06-28 15:07:00,74.7,63.5,29.74,NW,311,5.0,10.0,68,0.00,,---,0.01,842.00,VWS V14.00,2013-06-28 20:07:00,
2013-06-28 15:12:00,74.9,63.2,29.74,West,266,2.0,11.0,67,0.00,,---,0.01,958.00,VWS V14.00,2013-06-28 20:12:00,
2013-06-28 15:18:00,75.1,64.2,29.74,NNW,334,3.0,12.0,69,0.00,,---,0.01,1021.00,VWS V14.00,2013-06-28 20:18:00,
2013-06-28 15:23:00,75.4,63.7,29.73,NW,312,4.0,12.0,67,0.00,,---,0.01,904.00,VWS V14.00,2013-06-28 20:23:00,
2013-06-28 15:28:00,75.8,63.6,29.73,NW,320,1.0,5.0,66,0.00,,---,0.01,976.00,VWS V14.00,2013-06-28 20:28:00,
2013-06-28 15:30:00,72.4,64.0,29.75,NNW,329,3.0,13.0,75,0.00,,---,0.01,575.00,VWS V14.00,2013-06-28 20:30:00,
2013-06-28 15:33:00,76.2,64.4,29.74,NNW,327,2.0,10.0,67,0.00,,---,0.01,942.00,VWS V14.00,2013-06-28 20:33:00,
2013-06-28 15:38:00,76.2,62.7,29.73,NW,325,9.0,11.0,63,0.00,,---,0.01,902.00,VWS V14.00,2013-06-28 20:38:00,
2013-06-28 15:43:00,76.1,62.2,29.73,ENE,69,2.0,15.0,62,0.00,,---,0.01,907.00,VWS V14.00,2013-06-28 20:43:00,
2013-06-28 15:48:00,76.2,63.1,29.73,NNW,329,3.0,15.0,64,0.00,,---,0.01,912.00,VWS V14.00,2013-06-28 20:48:00,
2013-06-28 15:53:00,76.3,64.1,29.73,NW,310,4.0,15.0,66,0.00,,---,0.01,849.00,VWS V14.00,2013-06-28 20:53:00,
2013-06-28 15:58:00,76.1,62.6,29.73,NW,319,5.0,13.0,63,0.00,,---,0.01,877.00,VWS V14.00,2013-06-28 20:58:00,
2013-06-28 16:00:00,74.2,63.0,29.74,NNW,333,4.0,15.0,68,0.00,,---,0.01,986.00,VWS V14.00,2013-06-28 21:00:00,
2013-06-28 16:03:00,75.8,62.8,29.73,NW,317,11.0,14.0,64,0.00,,---,0.01,214.00,VWS V14.00,2013-06-28 21:03:00,
2013-06-28 16:08:00,76.0,63.4,29.73,NW,304,6.0,14.0,65,0.00,,---,0.01,118.00,VWS V14.00,2013-06-28 21:08:00,
2013-06-28 16:13:00,76.1,63.0,29.73,NNE,29,7.0,14.0,64,0.00,,---,0.01,102.00,VWS V14.00,2013-06-28 21:13:00,
2013-06-28 16:18:00,75.9,63.3,29.73,NNW,332,6.0,14.0,65,0.00,,---,0.01,139.00,VWS V14.00,2013-06-28 21:18:00,
2013-06-28 16:24:00,75.7,62.7,29.73,NW,306,1.0,14.0,64,0.00,,---,0.01,174.00,VWS V14.00,2013-06-28 21:24:00,
2013-06-28 16:29:00,75.9,63.3,29.73,WNW,300,7.0,12.0,65,0.00,,---,0.01,105.00,VWS V14.00,2013-06-28 21:29:00,
2013-06-28 16:30:00,75.8,63.6,29.73,NNW,332,4.0,13.0,66,0.00,,---,0.01,951.00,VWS V14.00,2013-06-28 21:30:00,
2013-06-28 16:34:00,75.8,62.3,29.73,WNW,296,9.0,17.0,63,0.00,,---,0.01,146.00,VWS V14.00,2013-06-28 21:34:00,
2013-06-28 16:39:00,75.6,62.6,29.73,WNW,303,4.0,17.0,64,0.00,,---,0.01,84.00,VWS V14.00,2013-06-28 21:39:00,
2013-06-28 16:44:00,75.5,63.4,29.73,NW,322,6.0,17.0,66,0.00,,---,0.01,102.00,VWS V14.00,2013-06-28 21:44:00,
2013-06-28 16:49:00,75.6,62.6,29.73,NW,323,11.0,19.0,64,0.00,,---,0.01,113.00,VWS V14.00,2013-06-28 21:49:00,
2013-06-28 16:54:00,75.6,62.6,29.72,North,5,7.0,19.0,64,0.00,,---,0.01,202.00,VWS V14.00,2013-06-28 21:54:00,
2013-06-28 16:59:00,75.6,63.5,29.72,NW,319,7.0,11.0,66,0.00,,---,0.01,260.00,VWS V14.00,2013-06-28 21:59:00,
2013-06-28 17:00:00,76.1,62.6,29.73,NW,306,7.0,15.0,63,0.00,,---,0.01,828.00,VWS V14.00,2013-06-28 22:00:00,
2013-06-28 17:04:00,75.9,63.3,29.72,NW,306,4.0,11.0,65,0.00,,---,0.01,123.00,VWS V14.00,2013-06-28 22:04:00,
2013-06-28 17:09:00,76.2,62.2,29.72,NW,305,4.0,13.0,62,0.00,,---,0.01,176.00,VWS V14.00,2013-06-28 22:09:00,
2013-06-28 17:14:00,76.4,62.4,29.72,NW,308,4.0,14.0,62,0.00,,---,0.01,236.00,VWS V14.00,2013-06-28 22:14:00,
2013-06-28 17:19:00,76.1,63.0,29.72,NNW,333,11.0,14.0,64,0.00,,---,0.01,200.00,VWS V14.00,2013-06-28 22:19:00,
2013-06-28 17:24:00,76.0,62.0,29.72,WNW,300,4.0,20.0,62,0.00,,---,0.01,98.00,VWS V14.00,2013-06-28 22:24:00,
2013-06-28 17:29:00,76.0,61.6,29.72,NW,325,7.0,17.0,61,0.00,,---,0.01,207.00,VWS V14.00,2013-06-28 22:29:00,
2013-06-28 17:30:00,75.8,64.5,29.73,NNE,17,8.0,14.0,68,0.00,,---,0.01,167.00,VWS V14.00,2013-06-28 22:30:00,
2013-06-28 17:34:00,76.0,62.5,29.72,NW,322,4.0,17.0,63,0.00,,---,0.01,171.00,VWS V14.00,2013-06-28 22:34:00,
2013-06-28 17:39:00,76.1,62.6,29.72,NW,309,6.0,17.0,63,0.00,,---,0.01,174.00,VWS V14.00,2013-06-28 22:39:00,
2013-06-28 17:44:00,76.0,62.0,29.72,NNW,347,10.0,18.0,62,0.00,,---,0.01,237.00,VWS V14.00,2013-06-28 22:44:00,
2013-06-28 17:49:00,76.1,62.6,29.72,NW,323,3.0,18.0,63,0.00,,---,0.01,123.00,VWS V14.00,2013-06-28 22:49:00,
2013-06-28 17:54:00,75.7,62.7,29.72,NW,321,4.0,18.0,64,0.00,,---,0.01,146.00,VWS V14.00,2013-06-28 22:54:00,
2013-06-28 17:59:00,75.3,61.8,29.72,North,355,8.0,10.0,63,0.00,,---,0.01,151.00,VWS V14.00,2013-06-28 22:59:00,
2013-06-28 18:00:00,75.6,63.0,29.72,NW,304,1.0,19.0,65,0.00,,---,0.01,297.00,VWS V14.00,2013-06-28 23:00:00,
2013-06-28 18:04:00,75.1,61.7,29.72,WNW,288,3.0,15.0,63,0.00,,---,0.01,128.00,VWS V14.00,2013-06-28 23:04:00,
2013-06-28 18:09:00,75.2,61.8,29.72,WNW,302,5.0,16.0,63,0.00,,---,0.01,128.00,VWS V14.00,2013-06-28 23:09:00,
2013-06-28 18:14:00,75.5,62.0,29.71,North,355,11.0,16.0,63,0.00,,---,0.01,134.00,VWS V14.00,2013-06-28 23:14:00,
2013-06-28 18:19:00,75.5,62.0,29.72,NNE,33,12.0,16.0,63,0.00,,---,0.01,60.00,VWS V14.00,2013-06-28 23:19:00,
2013-06-28 18:24:00,75.1,61.7,29.72,North,355,5.0,16.0,63,0.00,,---,0.01,76.00,VWS V14.00,2013-06-28 23:24:00,
2013-06-28 18:29:00,75.2,62.2,29.72,WNW,292,3.0,10.0,64,0.00,,---,0.01,95.00,VWS V14.00,2013-06-28 23:29:00,
2013-06-28 18:30:00,76.0,62.0,29.72,WNW,301,6.0,20.0,62,0.00,,---,0.01,171.00,VWS V14.00,2013-06-28 23:30:00,
2013-06-28 18:35:00,75.4,61.5,29.72,West,277,10.0,16.0,62,0.00,,---,0.01,65.00,VWS V14.00,2013-06-28 23:35:00,
2013-06-28 18:40:00,75.4,61.9,29.72,NW,325,6.0,16.0,63,0.00,,---,0.01,56.00,VWS V14.00,2013-06-28 23:40:00,
2013-06-28 18:45:00,75.3,62.7,29.72,NW,323,1.0,16.0,65,0.00,,---,0.01,51.00,VWS V14.00,2013-06-28 23:45:00,
2013-06-28 18:50:00,75.1,62.1,29.72,NNW,344,3.0,16.0,64,0.00,,---,0.01,125.00,VWS V14.00,2013-06-28 23:50:00,
2013-06-28 18:55:00,75.2,61.8,29.72,NNW,329,4.0,16.0,63,0.00,,---,0.01,137.00,VWS V14.00,2013-06-28 23:55:00,
2013-06-28 19:00:00,75.6,62.1,29.72,NNW,333,5.0,17.0,63,0.00,,---,0.01,83.00,VWS V14.00,2013-06-29 00:00:00,
2013-06-28 19:05:00,75.5,62.5,29.72,NW,318,1.0,17.0,64,0.00,,---,0.01,47.00,VWS V14.00,2013-06-29 00:05:00,
2013-06-28 19:10:00,75.2,61.8,29.72,NNW,336,7.0,17.0,63,0.00,,---,0.01,120.00,VWS V14.00,2013-06-29 00:10:00,
2013-06-28 19:15:00,75.4,62.8,29.72,NW,308,10.0,17.0,65,0.00,,---,0.01,77.00,VWS V14.00,2013-06-29 00:15:00,
2013-06-28 19:20:00,75.1,62.5,29.73,NNW,330,1.0,19.0,65,0.00,,---,0.01,77.00,VWS V14.00,2013-06-29 00:20:00,
2013-06-28 19:25:00,74.7,62.6,29.73,NNW,331,12.0,19.0,66,0.00,,---,0.01,70.00,VWS V14.00,2013-06-29 00:25:00,
2013-06-28 19:30:00,74.3,62.2,29.73,NNW,328,3.0,16.0,66,0.00,,---,0.01,67.00,VWS V14.00,2013-06-29 00:30:00,
2013-06-28 19:35:00,74.1,62.0,29.73,West,267,1.0,17.0,66,0.00,,---,0.01,102.00,VWS V14.00,2013-06-29 00:35:00,
2013-06-28 19:40:00,74.2,62.1,29.73,NW,325,6.0,22.0,66,0.00,,---,0.01,98.00,VWS V14.00,2013-06-29 00:40:00,
2013-06-28 19:45:00,74.3,62.6,29.73,NW,309,1.0,22.0,67,0.00,,---,0.01,125.00,VWS V14.00,2013-06-29 00:45:00,
2013-06-28 19:50:00,74.2,62.5,29.73,NNW,346,7.0,22.0,67,0.00,,---,0.01,114.00,VWS V14.00,2013-06-29 00:50:00,
2013-06-28 19:55:00,74.2,63.0,29.73,NW,315,4.0,22.0,68,0.00,,---,0.01,97.00,VWS V14.00,2013-06-29 00:55:00,
2013-06-28 20:00:00,75.4,62.4,29.72,WNW,302,2.0,16.0,64,0.00,,---,0.01,139.00,VWS V14.00,2013-06-29 01:00:00,
2013-06-28 20:01:00,73.5,63.1,29.73,NNE,24,3.0,9.0,70,0.00,,---,0.01,37.00,VWS V14.00,2013-06-29 01:01:00,
2013-06-28 20:06:00,72.7,63.5,29.73,NNE,13,4.0,9.0,73,0.00,,---,0.01,16.00,VWS V14.00,2013-06-29 01:06:00,
2013-06-28 20:11:00,71.7,64.1,29.75,North,355,9.0,10.0,77,0.00,,---,0.01,0.00,VWS V14.00,2013-06-29 01:11:00,
2013-06-28 20:16:00,69.4,63.3,29.77,North,9,6.0,21.0,81,0.00,,---,0.01,7.00,VWS V14.00,2013-06-29 01:16:00,
2013-06-28 20:21:00,67.0,62.7,29.76,North,5,13.0,21.0,86,0.00,,---,0.01,16.00,VWS V14.00,2013-06-29 01:21:00,
2013-06-28 20:26:00,65.7,62.0,29.76,NW,323,5.0,21.0,88,0.00,,---,0.01,25.00,VWS V14.00,2013-06-29 01:26:00,
2013-06-28 20:30:00,74.6,62.5,29.73,NNE,22,5.0,19.0,66,0.00,,---,0.01,60.00,VWS V14.00,2013-06-29 01:30:00,
2013-06-28 20:31:00,65.1,61.8,29.76,NW,320,2.0,11.0,89,0.00,,---,0.01,26.00,VWS V14.00,2013-06-29 01:31:00,
2013-06-28 20:36:00,64.9,62.2,29.75,NW,326,2.0,11.0,91,0.00,,---,0.01,30.00,VWS V14.00,2013-06-29 01:36:00,
2013-06-28 20:41:00,64.8,62.1,29.75,WNW,301,1.0,11.0,91,0.00,,---,0.01,23.00,VWS V14.00,2013-06-29 01:41:00,
2013-06-28 20:42:00,64.8,62.1,29.75,NNW,330,5.0,11.0,91,0.00,,---,0.01,21.00,VWS V14.00,2013-06-29 01:42:00,
2013-06-28 20:47:00,64.8,62.1,29.75,NW,308,0.0,11.0,91,0.00,,---,0.01,11.00,VWS V14.00,2013-06-29 01:47:00,
2013-06-28 20:52:00,64.9,62.2,29.76,NNW,327,7.0,11.0,91,0.00,,---,0.01,7.00,VWS V14.00,2013-06-29 01:52:00,
2013-06-28 20:57:00,65.1,62.7,29.76,NNW,344,3.0,11.0,92,0.00,,---,0.01,5.00,VWS V14.00,2013-06-29 01:57:00,
2013-06-28 21:00:00,74.1,63.3,29.73,NNE,32,5.0,22.0,69,0.00,,---,0.01,63.00,VWS V14.00,2013-06-29 02:00:00,
2013-06-28 21:02:00,65.1,62.7,29.76,NW,317,2.0,4.0,92,0.00,,---,0.01,0.00,VWS V14.00,2013-06-29 02:02:00,
2013-06-28 21:07:00,65.2,62.8,29.76,NNW,327,2.0,5.0,92,0.00,,---,0.01,0.00,VWS V14.00,2013-06-29 02:07:00,
2013-06-28 21:12:00,65.2,62.8,29.76,NW,321,2.0,5.0,92,0.00,,---,0.01,0.00,VWS V14.00,2013-06-29 02:12:00,
2013-06-28 21:17:00,65.2,62.8,29.76,NW,323,1.0,5.0,92,0.00,,---,0.01,0.00,VWS V14.00,2013-06-29 02:17:00,
2013-06-28 21:22:00,65.2,62.8,29.76,NNW,340,2.0,5.0,92,0.00,,---,0.01,0.00,VWS V14.00,2013-06-29 02:22:00,
2013-06-28 21:27:00,65.2,62.8,29.76,NW,323,0.0,1.0,92,0.00,,---,0.01,0.00,VWS V14.00,2013-06-29 02:27:00,
2013-06-28 21:30:00,65.5,61.9,29.76,NNW,332,3.0,21.0,88,0.00,,---,0.01,25.00,VWS V14.00,2013-06-29 02:30:00,
2013-06-28 21:32:00,65.2,62.8,29.76,WNW,302,0.0,3.0,92,0.00,,---,0.01,0.00,VWS V14.00,2013-06-29 02:32:00,
2013-06-28 21:38:00,65.1,62.7,29.76,NW,317,2.0,3.0,92,0.00,,---,0.01,0.00,VWS V14.00,2013-06-29 02:38:00,
2013-06-28 21:43:00,65.1,62.7,29.76,NW,318,0.0,5.0,92,0.00,,---,0.01,0.00,VWS V14.00,2013-06-29 02:43:00,
2013-06-28 21:48:00,65.1,62.7,29.76,NNW,347,0.0,5.0,92,0.00,,---,0.01,0.00,VWS V14.00,2013-06-29 02:48:00,
2013-06-28 21:53:00,65.1,63.0,29.76,NNW,327,0.0,5.0,93,0.00,,---,0.01,0.00,VWS V14.00,2013-06-29 02:53:00,
2013-06-28 21:58:00,65.1,63.0,29.76,NNW,327,0.0,0.0,93,0.00,,---,0.01,0.00,VWS V14.00,2013-06-29 02:58:00,
2013-06-28 22:00:00,65.1,62.7,29.76,NNW,338,3.0,11.0,92,0.00,,---,0.01,5.00,VWS V14.00,2013-06-29 03:00:00,
2013-06-28 22:03:00,65.0,62.9,29.76,NNW,346,0.0,5.0,93,0.00,,---,0.01,0.00,VWS V14.00,2013-06-29 03:03:00,
2013-06-28 22:08:00,65.1,63.0,29.76,NNW,339,0.0,5.0,93,0.00,,---,0.01,0.00,VWS V14.00,2013-06-29 03:08:00,
2013-06-28 22:13:00,65.2,63.4,29.76,NW,313,0.0,5.0,94,0.00,,---,0.01,0.00,VWS V14.00,2013-06-29 03:13:00,
2013-06-28 22:18:00,65.3,63.5,29.76,NW,311,0.0,5.0,94,0.00,,---,0.01,0.00,VWS V14.00,2013-06-29 03:18:00,
2013-06-28 22:23:00,65.3,63.5,29.76,NW,313,0.0,5.0,94,0.00,,---,0.01,0.00,VWS V14.00,2013-06-29 03:23:00,
2013-06-28 22:29:00,65.4,63.6,29.76,NW,317,0.0,1.0,94,0.00,,---,0.01,0.00,VWS V14.00,2013-06-29 03:29:00,
2013-06-28 22:30:00,65.2,62.8,29.76,NW,323,0.0,6.0,92,0.00,,---,0.01,0.00,VWS V14.00,2013-06-29 03:30:00,
2013-06-28 22:34:00,65.6,63.8,29.75,NW,317,3.0,3.0,94,0.00,,---,0.01,0.00,VWS V14.00,2013-06-29 03:34:00,
2013-06-28 22:39:00,65.7,64.2,29.75,NW,317,0.0,3.0,95,0.00,,---,0.01,0.00,VWS V14.00,2013-06-29 03:39:00,
2013-06-28 22:44:00,65.7,63.9,29.76,NW,317,0.0,3.0,94,0.00,,---,0.01,0.00,VWS V14.00,2013-06-29 03:44:00,
2013-06-28 22:49:00,65.8,64.0,29.76,NW,317,1.0,3.0,94,0.00,,---,0.01,0.00,VWS V14.00,2013-06-29 03:49:00,
2013-06-28 22:54:00,65.9,64.1,29.75,North,351,1.0,4.0,94,0.00,,---,0.01,0.00,VWS V14.00,2013-06-29 03:54:00,
2013-06-28 22:59:00,65.9,64.1,29.75,North,351,0.0,2.0,94,0.00,,---,0.01,0.00,VWS V14.00,2013-06-29 03:59:00,
2013-06-28 23:00:00,65.1,63.0,29.76,NNW,327,0.0,5.0,93,0.00,,---,0.01,0.00,VWS V14.00,2013-06-29 04:00:00,
2013-06-28 23:01:00,65.9,64.1,29.75,North,351,1.0,2.0,94,0.00,,---,0.01,0.00,VWS V14.00,2013-06-29 04:01:00,
2013-06-28 23:02:00,65.9,64.1,29.75,North,351,0.0,2.0,94,0.00,,---,0.01,0.00,VWS V14.00,2013-06-29 04:02:00,
2013-06-28 23:03:00,65.8,64.0,29.76,North,351,0.0,2.0,94,0.00,,---,0.01,0.00,VWS V14.00,2013-06-29 04:03:00,
2013-06-28 23:08:00,65.7,63.9,29.75,North,355,0.0,4.0,94,0.00,,---,0.01,0.00,VWS V14.00,2013-06-29 04:08:00,
2013-06-28 23:13:00,65.8,64.0,29.75,North,9,2.0,5.0,94,0.00,,---,0.01,0.00,VWS V14.00,2013-06-29 04:13:00,
2013-06-28 23:18:00,65.9,64.1,29.75,North,360,1.0,5.0,94,0.00,,---,0.01,0.00,VWS V14.00,2013-06-29 04:18:00,
2013-06-28 23:23:00,65.9,64.1,29.75,NNW,345,0.0,5.0,94,0.00,,---,0.01,0.00,VWS V14.00,2013-06-29 04:23:00,
2013-06-28 23:28:00,66.0,64.2,29.75,NNW,336,4.0,5.0,94,0.00,,---,0.01,0.00,VWS V14.00,2013-06-29 04:28:00,
2013-06-28 23:30:00,65.4,63.6,29.76,NW,317,0.0,5.0,94,0.00,,---,0.01,0.00,VWS V14.00,2013-06-29 04:30:00,
2013-06-28 23:34:00,66.1,64.0,29.75,NW,310,2.0,10.0,93,0.00,,---,0.01,0.00,VWS V14.00,2013-06-29 04:34:00,
2013-06-28 23:39:00,66.1,64.0,29.74,NNW,338,3.0,10.0,93,0.00,,---,0.01,0.00,VWS V14.00,2013-06-29 04:39:00,
2013-06-28 23:44:00,66.1,64.0,29.75,NNW,331,3.0,10.0,93,0.00,,---,0.01,0.00,VWS V14.00,2013-06-29 04:44:00,
2013-06-28 23:49:00,65.8,63.7,29.75,NNE,27,6.0,10.0,93,0.00,,---,0.01,0.00,VWS V14.00,2013-06-29 04:49:00,
2013-06-28 23:54:00,65.6,63.2,29.74,NW,326,4.0,10.0,92,0.00,,---,0.01,0.00,VWS V14.00,2013-06-29 04:54:00,
2013-06-28 23:59:00,65.4,63.3,29.74,NNW,331,4.0,5.0,93,0.00,,---,0.00,0.00,VWS V14.00,2013-06-29 04:59:00,